Time;durP1;ratioP1;P1;durP2;ratioP2;P2;SDS_P1;SDS_P2;PMS_P1;PMS_P2;Temp;Humidity;BMP_temperature;BMP_pressure;BME280_temperature;BME280_humidity;BME280_pressure;Samples;Min_cycle;Max_cycle;Signal;HPM_P1;HPM_P2
2021/09/03 00:00:30;;;;;;;9.37;5.33;;;;;;;;;;760090;182;616791;-67
2021/09/03 00:02:56;;;;;;;6.20;4.77;;;;;;;;;;761076;182;622080;-65
2021/09/03 00:05:22;;;;;;;6.93;5.40;;;;;;;;;;762104;182;631981;-66
2021/09/03 00:07:47;;;;;;;9.00;5.33;;;;;;;;;;761215;182;630691;-66
2021/09/03 00:10:13;;;;;;;7.83;5.63;;;;;;;;;;757846;182;623716;-65
2021/09/03 00:12:39;;;;;;;7.80;5.68;;;;;;;;;;763590;182;627618;-68
2021/09/03 00:15:06;;;;;;;5.37;4.47;;;;;;;;;;757636;185;627780;-66
2021/09/03 00:17:32;;;;;;;12.83;5.93;;;;;;;;;;756564;182;631098;-66
2021/09/03 00:19:57;;;;;;;5.87;3.90;;;;;;;;;;756953;182;618888;-66
2021/09/03 00:22:23;;;;;;;6.40;4.00;;;;;;;;;;760607;182;615629;-68
2021/09/03 00:24:49;;;;;;;10.13;5.07;;;;;;;;;;750914;182;1868509;-66
2021/09/03 00:27:15;;;;;;;9.60;5.30;;;;;;;;;;758635;182;630469;-65
2021/09/03 00:29:41;;;;;;;5.93;4.23;;;;;;;;;;761220;182;613035;-65
2021/09/03 00:32:07;;;;;;;10.10;6.13;;;;;;;;;;757688;182;636880;-66
2021/09/03 00:34:33;;;;;;;8.40;5.80;;;;;;;;;;758044;182;636004;-66
2021/09/03 00:36:58;;;;;;;6.90;4.83;;;;;;;;;;761879;182;623447;-65
2021/09/03 00:39:24;;;;;;;6.53;4.73;;;;;;;;;;755060;182;622809;-65
2021/09/03 00:41:50;;;;;;;9.17;6.37;;;;;;;;;;755019;182;637437;-65
2021/09/03 00:44:16;;;;;;;21.10;6.23;;;;;;;;;;758117;182;634863;-66
2021/09/03 00:46:42;;;;;;;21.60;6.67;;;;;;;;;;765433;182;626766;-67
2021/09/03 00:49:08;;;;;;;19.00;6.37;;;;;;;;;;757051;182;618831;-66
2021/09/03 00:51:33;;;;;;;13.63;6.17;;;;;;;;;;758391;182;632626;-67
2021/09/03 00:53:59;;;;;;;12.90;6.20;;;;;;;;;;760137;182;629179;-66
2021/09/03 00:56:25;;;;;;;11.40;6.60;;;;;;;;;;760045;182;634677;-67
2021/09/03 00:58:51;;;;;;;8.43;5.53;;;;;;;;;;765066;182;620911;-67
2021/09/03 01:01:19;;;;;;;9.37;5.87;;;;;;;;;;764518;182;739451;-66
2021/09/03 01:03:43;;;;;;;10.03;6.07;;;;;;;;;;758864;182;623550;-66
2021/09/03 01:06:08;;;;;;;15.30;6.30;;;;;;;;;;760078;182;637594;-66
2021/09/03 01:08:34;;;;;;;17.20;5.70;;;;;;;;;;759508;181;622660;-66
2021/09/03 01:11:00;;;;;;;34.53;6.60;;;;;;;;;;766627;181;618654;-68
2021/09/03 01:13:26;;;;;;;13.70;6.63;;;;;;;;;;765426;182;622507;-67
2021/09/03 01:15:52;;;;;;;17.43;7.93;;;;;;;;;;757623;182;623267;-66
2021/09/03 01:18:18;;;;;;;18.87;8.07;;;;;;;;;;759475;182;617507;-67
2021/09/03 01:20:44;;;;;;;14.07;7.67;;;;;;;;;;758923;182;645315;-67
2021/09/03 01:23:09;;;;;;;14.30;8.30;;;;;;;;;;757448;182;619630;-67
2021/09/03 01:25:35;;;;;;;19.57;8.00;;;;;;;;;;757675;182;919462;-67
2021/09/03 01:28:01;;;;;;;22.97;8.30;;;;;;;;;;756685;182;914251;-66
2021/09/03 01:30:27;;;;;;;22.50;8.43;;;;;;;;;;758403;185;631846;-66
2021/09/03 01:32:53;;;;;;;15.27;8.17;;;;;;;;;;758619;182;620001;-66
2021/09/03 01:35:19;;;;;;;16.60;8.43;;;;;;;;;;767727;182;618565;-67
2021/09/03 01:37:45;;;;;;;13.73;7.07;;;;;;;;;;757587;182;628923;-67
2021/09/03 01:40:10;;;;;;;26.13;8.27;;;;;;;;;;760440;182;626034;-67
2021/09/03 01:42:36;;;;;;;16.87;7.93;;;;;;;;;;761208;182;626837;-67
2021/09/03 01:45:02;;;;;;;23.87;7.60;;;;;;;;;;758484;182;624231;-67
2021/09/03 01:47:28;;;;;;;16.60;7.50;;;;;;;;;;756495;185;621638;-67
2021/09/03 01:49:55;;;;;;;17.07;7.70;;;;;;;;;;761264;182;613374;-67
2021/09/03 01:52:20;;;;;;;15.73;6.53;;;;;;;;;;758719;182;636581;-68
2021/09/03 01:54:45;;;;;;;17.60;7.05;;;;;;;;;;756264;182;912183;-67
2021/09/03 01:57:11;;;;;;;12.10;7.17;;;;;;;;;;757603;182;1021930;-67
2021/09/03 01:59:38;;;;;;;17.23;7.50;;;;;;;;;;755423;182;920351;-67
2021/09/03 02:02:04;;;;;;;12.60;6.83;;;;;;;;;;764400;182;627233;-67
2021/09/03 02:04:30;;;;;;;11.70;6.50;;;;;;;;;;755667;182;630598;-67
2021/09/03 02:06:55;;;;;;;7.67;5.83;;;;;;;;;;763678;182;635921;-68
2021/09/03 02:09:21;;;;;;;13.70;7.03;;;;;;;;;;761877;182;625515;-68
2021/09/03 02:11:48;;;;;;;9.30;6.93;;;;;;;;;;757733;182;627707;-67
2021/09/03 02:14:13;;;;;;;10.13;7.00;;;;;;;;;;760790;182;632126;-69
2021/09/03 02:16:39;;;;;;;11.07;6.57;;;;;;;;;;759525;182;616086;-67
2021/09/03 02:19:05;;;;;;;24.17;7.30;;;;;;;;;;757878;181;618293;-67
2021/09/03 02:21:30;;;;;;;10.03;6.73;;;;;;;;;;762959;181;631093;-68
2021/09/03 02:23:56;;;;;;;10.30;7.00;;;;;;;;;;758601;182;626325;-67
2021/09/03 02:26:22;;;;;;;11.30;7.50;;;;;;;;;;764229;182;823545;-67
2021/09/03 02:28:48;;;;;;;9.70;6.77;;;;;;;;;;758465;182;624536;-67
2021/09/03 02:31:14;;;;;;;12.10;8.13;;;;;;;;;;768115;182;625204;-68
2021/09/03 02:33:40;;;;;;;9.83;6.37;;;;;;;;;;759149;182;619024;-67
2021/09/03 02:36:05;;;;;;;8.77;6.90;;;;;;;;;;757952;182;628815;-67
2021/09/03 02:38:31;;;;;;;9.50;6.50;;;;;;;;;;764793;182;615116;-67
2021/09/03 02:40:57;;;;;;;9.70;6.80;;;;;;;;;;764479;182;626779;-67
2021/09/03 02:43:23;;;;;;;9.80;5.93;;;;;;;;;;757153;182;631636;-67
2021/09/03 02:45:49;;;;;;;10.50;7.60;;;;;;;;;;759202;182;868277;-67
2021/09/03 02:48:15;;;;;;;10.30;5.80;;;;;;;;;;757651;182;629481;-67
2021/09/03 02:50:41;;;;;;;10.60;6.87;;;;;;;;;;760096;182;623960;-67
2021/09/03 02:53:06;;;;;;;9.93;6.23;;;;;;;;;;760331;182;621068;-67
2021/09/03 02:55:32;;;;;;;28.40;8.87;;;;;;;;;;746740;185;641453;-67
2021/09/03 02:57:58;;;;;;;7.60;5.27;;;;;;;;;;757669;182;634708;-67
2021/09/03 03:00:24;;;;;;;8.77;6.23;;;;;;;;;;758163;182;622743;-67
2021/09/03 03:02:51;;;;;;;10.57;5.73;;;;;;;;;;761197;182;608995;-67
2021/09/03 03:05:16;;;;;;;14.20;6.03;;;;;;;;;;758875;182;622840;-67
2021/09/03 03:07:41;;;;;;;17.33;7.40;;;;;;;;;;756975;182;618452;-67
2021/09/03 03:10:07;;;;;;;12.93;6.73;;;;;;;;;;760889;182;619096;-67
2021/09/03 03:12:34;;;;;;;11.20;6.50;;;;;;;;;;760376;182;635450;-67
2021/09/03 03:14:59;;;;;;;22.20;6.63;;;;;;;;;;755518;182;632880;-67
2021/09/03 03:17:25;;;;;;;12.13;6.80;;;;;;;;;;760029;182;618814;-67
2021/09/03 03:19:51;;;;;;;8.85;6.00;;;;;;;;;;742430;189;631105;-67
2021/09/03 03:22:17;;;;;;;12.50;6.13;;;;;;;;;;746606;186;672124;-67
2021/09/03 03:24:42;;;;;;;10.80;7.47;;;;;;;;;;753649;182;640654;-67
2021/09/03 03:27:08;;;;;;;9.50;6.00;;;;;;;;;;754925;183;919608;-67
2021/09/03 03:29:34;;;;;;;11.73;6.20;;;;;;;;;;750851;184;632148;-67
2021/09/03 03:32:00;;;;;;;11.03;6.50;;;;;;;;;;755685;182;635093;-67
2021/09/03 03:34:26;;;;;;;13.07;5.80;;;;;;;;;;759960;182;632057;-68
2021/09/03 03:36:52;;;;;;;14.10;6.80;;;;;;;;;;755579;183;627501;-66
2021/09/03 03:39:17;;;;;;;10.27;5.60;;;;;;;;;;755687;183;624972;-67
2021/09/03 03:41:43;;;;;;;13.43;7.20;;;;;;;;;;758261;183;620132;-66
2021/09/03 03:44:09;;;;;;;14.40;7.67;;;;;;;;;;755740;182;627853;-67
2021/09/03 03:46:35;;;;;;;10.97;6.20;;;;;;;;;;754403;183;641940;-68
2021/09/03 03:49:01;;;;;;;12.63;6.47;;;;;;;;;;754937;183;638710;-66
2021/09/03 03:51:27;;;;;;;14.30;6.90;;;;;;;;;;757854;183;642636;-68
2021/09/03 03:53:52;;;;;;;10.23;6.27;;;;;;;;;;753882;182;631501;-66
2021/09/03 03:56:18;;;;;;;9.73;6.47;;;;;;;;;;753192;182;635997;-66
2021/09/03 03:58:44;;;;;;;13.27;6.63;;;;;;;;;;756129;183;623391;-66
2021/09/03 04:01:10;;;;;;;11.80;6.33;;;;;;;;;;754203;182;624837;-67
2021/09/03 04:03:36;;;;;;;15.93;7.00;;;;;;;;;;754727;182;621608;-67
2021/09/03 04:06:02;;;;;;;14.23;7.40;;;;;;;;;;754580;183;681426;-67
2021/09/03 04:08:27;;;;;;;15.50;6.67;;;;;;;;;;754370;183;625399;-66
2021/09/03 04:10:53;;;;;;;13.53;6.30;;;;;;;;;;753882;182;618470;-66
2021/09/03 04:13:20;;;;;;;11.93;7.13;;;;;;;;;;752793;183;628166;-66
2021/09/03 04:15:45;;;;;;;17.30;6.60;;;;;;;;;;759345;185;618831;-66
2021/09/03 04:18:11;;;;;;;16.13;6.50;;;;;;;;;;755829;182;638180;-66
2021/09/03 04:20:37;;;;;;;11.67;6.50;;;;;;;;;;754313;182;627348;-66
2021/09/03 04:23:03;;;;;;;11.20;6.63;;;;;;;;;;761984;182;619657;-65
2021/09/03 04:25:28;;;;;;;12.63;7.10;;;;;;;;;;759564;182;627778;-67
2021/09/03 04:27:54;;;;;;;9.07;7.13;;;;;;;;;;765202;182;630583;-66
2021/09/03 04:30:20;;;;;;;16.23;6.80;;;;;;;;;;763024;182;609395;-66
2021/09/03 04:32:46;;;;;;;10.00;6.47;;;;;;;;;;757376;182;621144;-66
2021/09/03 04:35:12;;;;;;;14.57;7.27;;;;;;;;;;749804;182;629712;-66
2021/09/03 04:37:38;;;;;;;16.87;6.50;;;;;;;;;;762301;182;632542;-66
2021/09/03 04:40:04;;;;;;;14.13;8.07;;;;;;;;;;766209;182;630958;-67
2021/09/03 04:42:31;;;;;;;13.30;6.93;;;;;;;;;;756523;183;636980;-67
2021/09/03 04:44:57;;;;;;;14.33;6.70;;;;;;;;;;758788;181;616921;-67
2021/09/03 04:47:23;;;;;;;11.57;7.50;;;;;;;;;;765179;182;618092;-66
2021/09/03 04:49:49;;;;;;;16.10;8.37;;;;;;;;;;757830;182;626421;-67
2021/09/03 04:52:15;;;;;;;13.50;8.10;;;;;;;;;;763655;182;629267;-67
2021/09/03 04:54:41;;;;;;;11.67;7.80;;;;;;;;;;766106;182;633331;-69
2021/09/03 04:57:07;;;;;;;14.30;9.40;;;;;;;;;;759231;182;622092;-66
2021/09/03 04:59:34;;;;;;;16.20;8.83;;;;;;;;;;758373;182;617000;-67
2021/09/03 05:01:58;;;;;;;26.77;8.60;;;;;;;;;;757507;182;629859;-66
2021/09/03 05:04:24;;;;;;;18.60;9.50;;;;;;;;;;766896;182;623680;-67
2021/09/03 05:06:50;;;;;;;14.07;8.30;;;;;;;;;;759232;182;712807;-68
2021/09/03 05:09:16;;;;;;;12.87;9.23;;;;;;;;;;760546;182;618614;-68
2021/09/03 05:11:42;;;;;;;16.30;10.47;;;;;;;;;;753836;185;629247;-67
2021/09/03 05:14:07;;;;;;;14.40;9.40;;;;;;;;;;759869;182;625663;-67
2021/09/03 05:16:33;;;;;;;14.13;9.43;;;;;;;;;;763279;182;619559;-67
2021/09/03 05:18:59;;;;;;;19.33;11.60;;;;;;;;;;762459;182;617935;-67
2021/09/03 05:21:25;;;;;;;15.80;8.80;;;;;;;;;;756111;182;660404;-68
2021/09/03 05:23:51;;;;;;;18.13;9.70;;;;;;;;;;758561;182;630130;-67
2021/09/03 05:26:17;;;;;;;13.83;9.20;;;;;;;;;;759921;182;622256;-68
2021/09/03 05:28:42;;;;;;;14.53;8.13;;;;;;;;;;755961;182;625057;-67
2021/09/03 05:31:08;;;;;;;14.80;8.73;;;;;;;;;;757327;182;620406;-67
2021/09/03 05:33:34;;;;;;;17.23;9.70;;;;;;;;;;757206;182;618625;-67
2021/09/03 05:36:01;;;;;;;22.93;11.27;;;;;;;;;;762840;182;618728;-67
2021/09/03 05:38:27;;;;;;;16.40;9.90;;;;;;;;;;760502;182;649568;-67
2021/09/03 05:40:53;;;;;;;23.00;12.40;;;;;;;;;;757541;182;636005;-66
2021/09/03 05:43:21;;;;;;;23.43;12.33;;;;;;;;;;759403;182;1309822;-67
2021/09/03 05:45:44;;;;;;;25.67;15.17;;;;;;;;;;758801;182;630230;-66
2021/09/03 05:48:10;;;;;;;27.97;14.33;;;;;;;;;;756237;182;640792;-67
2021/09/03 05:50:36;;;;;;;30.20;15.97;;;;;;;;;;762376;182;627222;-66
2021/09/03 05:53:02;;;;;;;32.93;15.73;;;;;;;;;;759557;182;630385;-67
2021/09/03 05:55:28;;;;;;;25.63;13.90;;;;;;;;;;759243;181;621616;-67
2021/09/03 05:57:54;;;;;;;36.00;17.63;;;;;;;;;;758111;182;629963;-67
2021/09/03 06:00:20;;;;;;;32.63;18.37;;;;;;;;;;761692;182;618591;-67
2021/09/03 06:02:46;;;;;;;34.23;16.63;;;;;;;;;;758597;182;626698;-67
2021/09/03 06:05:11;;;;;;;39.28;18.98;;;;;;;;;;761479;182;625757;-67
2021/09/03 06:07:37;;;;;;;37.03;18.77;;;;;;;;;;763686;182;627127;-67
2021/09/03 06:10:03;;;;;;;30.20;17.63;;;;;;;;;;759088;182;637145;-67
2021/09/03 06:12:29;;;;;;;37.13;19.43;;;;;;;;;;759137;182;622884;-68
2021/09/03 06:14:55;;;;;;;35.57;19.27;;;;;;;;;;762194;182;617308;-67
2021/09/03 06:17:21;;;;;;;36.13;18.47;;;;;;;;;;756589;182;629382;-69
2021/09/03 06:19:47;;;;;;;35.93;19.73;;;;;;;;;;761966;182;627826;-67
2021/09/03 06:22:12;;;;;;;35.40;17.97;;;;;;;;;;761882;182;693810;-66
2021/09/03 06:24:38;;;;;;;29.63;16.37;;;;;;;;;;766636;179;616945;-67
2021/09/03 06:27:04;;;;;;;30.03;17.07;;;;;;;;;;759608;182;634178;-67
2021/09/03 06:29:47;;;;;;;31.80;17.43;;;;;;;;;;756728;182;623007;-66
2021/09/03 06:32:12;;;;;;;32.13;18.30;;;;;;;;;;754589;185;624786;-66
2021/09/03 06:34:38;;;;;;;27.20;15.07;;;;;;;;;;765405;182;616515;-66
2021/09/03 06:37:04;;;;;;;19.63;14.10;;;;;;;;;;764028;182;618903;-67
2021/09/03 06:39:30;;;;;;;26.93;14.50;;;;;;;;;;758803;182;661134;-66
2021/09/03 06:41:56;;;;;;;23.97;15.40;;;;;;;;;;760838;182;615992;-67
2021/09/03 06:44:22;;;;;;;25.00;14.03;;;;;;;;;;757299;182;630209;-67
2021/09/03 06:46:47;;;;;;;27.73;15.47;;;;;;;;;;748404;185;626867;-68
2021/09/03 06:49:13;;;;;;;21.43;13.77;;;;;;;;;;758267;182;628470;-66
2021/09/03 06:51:39;;;;;;;21.33;13.50;;;;;;;;;;766861;182;658650;-67
2021/09/03 06:54:05;;;;;;;24.83;15.17;;;;;;;;;;766641;182;631663;-67
2021/09/03 06:56:31;;;;;;;20.73;13.53;;;;;;;;;;756832;182;625207;-66
2021/09/03 06:58:59;;;;;;;23.23;13.67;;;;;;;;;;761323;182;638729;-66
2021/09/03 07:01:22;;;;;;;21.10;13.30;;;;;;;;;;758484;182;619236;-66
2021/09/03 07:03:48;;;;;;;19.73;12.97;;;;;;;;;;755607;182;627833;-67
2021/09/03 07:06:14;;;;;;;18.70;12.70;;;;;;;;;;762915;181;640345;-68
2021/09/03 07:08:40;;;;;;;17.00;11.37;;;;;;;;;;759380;181;627223;-67
2021/09/03 07:11:06;;;;;;;20.20;12.70;;;;;;;;;;763038;182;620198;-66
2021/09/03 07:13:32;;;;;;;15.70;11.17;;;;;;;;;;767059;182;630194;-66
2021/09/03 07:15:57;;;;;;;18.43;12.57;;;;;;;;;;757033;182;680306;-66
2021/09/03 07:18:23;;;;;;;15.67;10.60;;;;;;;;;;758503;182;633724;-66
2021/09/03 07:20:49;;;;;;;18.17;11.17;;;;;;;;;;759497;182;630262;-66
2021/09/03 07:23:15;;;;;;;16.40;10.00;;;;;;;;;;761235;182;620232;-66
2021/09/03 07:25:41;;;;;;;16.90;10.47;;;;;;;;;;757937;182;675905;-66
2021/09/03 07:28:07;;;;;;;15.47;9.80;;;;;;;;;;759098;182;628383;-66
2021/09/03 07:30:32;;;;;;;13.83;9.33;;;;;;;;;;757633;182;919379;-66
2021/09/03 07:32:58;;;;;;;18.20;10.47;;;;;;;;;;752833;182;918805;-65
2021/09/03 07:35:24;;;;;;;14.30;9.27;;;;;;;;;;755849;182;639709;-65
2021/09/03 07:37:51;;;;;;;15.17;11.10;;;;;;;;;;760351;182;631243;-66
2021/09/03 07:40:16;;;;;;;13.63;10.10;;;;;;;;;;758160;182;681010;-66
2021/09/03 07:42:42;;;;;;;15.83;10.00;;;;;;;;;;758515;182;622574;-67
2021/09/03 07:45:08;;;;;;;16.37;8.93;;;;;;;;;;755518;182;633155;-67
2021/09/03 07:47:33;;;;;;;12.53;7.93;;;;;;;;;;759181;185;617024;-66
2021/09/03 07:49:59;;;;;;;14.10;8.10;;;;;;;;;;756834;182;620525;-66
2021/09/03 07:52:25;;;;;;;22.70;9.10;;;;;;;;;;755736;182;629756;-65
2021/09/03 07:54:51;;;;;;;14.07;9.23;;;;;;;;;;761597;182;674995;-66
2021/09/03 07:57:17;;;;;;;15.90;9.13;;;;;;;;;;759482;182;626598;-65
2021/09/03 07:59:43;;;;;;;15.30;7.70;;;;;;;;;;764559;182;627427;-65
2021/09/03 08:02:09;;;;;;;12.83;8.20;;;;;;;;;;761629;182;630026;-65
2021/09/03 08:04:34;;;;;;;15.70;7.63;;;;;;;;;;757394;182;629765;-65
2021/09/03 08:07:00;;;;;;;10.00;6.77;;;;;;;;;;756899;182;627970;-66
2021/09/03 08:09:26;;;;;;;10.73;6.87;;;;;;;;;;756304;182;622326;-66
2021/09/03 08:11:52;;;;;;;12.60;6.47;;;;;;;;;;759159;185;627967;-67
2021/09/03 08:14:18;;;;;;;10.17;6.33;;;;;;;;;;754834;182;627869;-67
2021/09/03 08:16:44;;;;;;;12.03;7.33;;;;;;;;;;756802;181;645318;-65
2021/09/03 08:19:10;;;;;;;16.20;9.53;;;;;;;;;;765431;181;638421;-66
2021/09/03 08:21:35;;;;;;;9.17;7.13;;;;;;;;;;758668;182;635365;-69
2021/09/03 08:24:01;;;;;;;10.10;7.00;;;;;;;;;;761560;182;644515;-68
2021/09/03 08:26:27;;;;;;;9.57;6.07;;;;;;;;;;763890;182;628058;-68
2021/09/03 08:28:53;;;;;;;9.70;7.80;;;;;;;;;;761643;182;634809;-66
2021/09/03 08:31:19;;;;;;;12.43;7.73;;;;;;;;;;761386;182;622450;-66
2021/09/03 08:33:45;;;;;;;15.93;6.90;;;;;;;;;;762383;182;610524;-68
2021/09/03 08:36:10;;;;;;;13.13;8.17;;;;;;;;;;757631;182;632914;-67
2021/09/03 08:38:36;;;;;;;11.53;7.63;;;;;;;;;;758598;182;627400;-67
2021/09/03 08:41:02;;;;;;;9.93;7.20;;;;;;;;;;758587;182;621129;-67
2021/09/03 08:43:28;;;;;;;12.30;7.70;;;;;;;;;;763513;182;616804;-68
2021/09/03 08:45:54;;;;;;;13.03;8.00;;;;;;;;;;761302;182;625044;-67
2021/09/03 08:48:20;;;;;;;14.40;7.87;;;;;;;;;;758644;182;635096;-66
2021/09/03 08:50:45;;;;;;;11.20;7.70;;;;;;;;;;762477;182;616853;-66
2021/09/03 08:53:11;;;;;;;10.73;7.20;;;;;;;;;;761486;182;629689;-67
2021/09/03 08:55:37;;;;;;;9.30;6.50;;;;;;;;;;757379;182;632347;-66
2021/09/03 08:58:03;;;;;;;11.30;7.10;;;;;;;;;;760255;182;613821;-66
2021/09/03 09:00:33;;;;;;;10.50;6.70;;;;;;;;;;759993;182;630669;-66
2021/09/03 09:02:57;;;;;;;10.77;6.90;;;;;;;;;;759316;182;631617;-67
2021/09/03 09:05:23;;;;;;;12.03;6.57;;;;;;;;;;758769;182;623772;-66
2021/09/03 09:07:49;;;;;;;12.93;6.40;;;;;;;;;;760009;182;619111;-65
2021/09/03 09:10:14;;;;;;;10.50;6.90;;;;;;;;;;757902;182;869417;-67
2021/09/03 09:12:41;;;;;;;12.73;7.37;;;;;;;;;;761432;182;618791;-67
2021/09/03 09:15:07;;;;;;;10.07;6.20;;;;;;;;;;761874;182;622693;-69
2021/09/03 09:17:33;;;;;;;10.03;6.93;;;;;;;;;;759389;182;626281;-67
2021/09/03 09:19:59;;;;;;;12.10;6.07;;;;;;;;;;760004;182;633937;-67
2021/09/03 09:22:25;;;;;;;11.97;6.20;;;;;;;;;;758650;182;625198;-66
2021/09/03 09:24:51;;;;;;;9.87;6.80;;;;;;;;;;755627;185;623514;-67
2021/09/03 09:27:25;;;;;;;8.70;5.60;;;;;;;;;;759019;182;623717;-67
2021/09/03 09:29:51;;;;;;;9.37;6.33;;;;;;;;;;764237;181;915277;-67
2021/09/03 09:32:17;;;;;;;8.40;5.20;;;;;;;;;;763447;181;619036;-67
2021/09/03 09:34:44;;;;;;;8.60;5.90;;;;;;;;;;759240;182;629366;-67
2021/09/03 09:37:11;;;;;;;10.67;6.70;;;;;;;;;;762341;182;630538;-67
2021/09/03 09:39:41;;;;;;;8.60;5.90;;;;;;;;;;757351;185;614499;-67
2021/09/03 09:42:07;;;;;;;13.33;6.80;;;;;;;;;;762667;182;638200;-67
2021/09/03 09:44:33;;;;;;;9.93;5.37;;;;;;;;;;761542;182;630884;-67
2021/09/03 09:47:01;;;;;;;7.37;5.70;;;;;;;;;;758235;182;881715;-67
2021/09/03 09:49:27;;;;;;;8.20;5.50;;;;;;;;;;762692;182;650473;-68
2021/09/03 09:51:53;;;;;;;8.93;5.87;;;;;;;;;;766180;182;623753;-67
2021/09/03 09:54:19;;;;;;;10.13;6.47;;;;;;;;;;761001;182;630775;-68
2021/09/03 09:56:45;;;;;;;8.80;5.90;;;;;;;;;;756420;182;624334;-67
2021/09/03 09:59:11;;;;;;;7.70;4.80;;;;;;;;;;763914;182;636405;-69
2021/09/03 10:01:37;;;;;;;7.97;5.33;;;;;;;;;;755986;182;914519;-68
2021/09/03 10:04:02;;;;;;;8.90;5.87;;;;;;;;;;760126;182;632205;-67
2021/09/03 10:06:30;;;;;;;8.60;7.20;;;;;;;;;;763023;182;630330;-68
2021/09/03 10:08:54;;;;;;;7.83;5.30;;;;;;;;;;759385;182;639955;-67
2021/09/03 10:11:20;;;;;;;6.80;4.73;;;;;;;;;;757231;182;620960;-67
2021/09/03 10:13:46;;;;;;;7.40;4.10;;;;;;;;;;762356;182;619280;-68
2021/09/03 10:16:12;;;;;;;7.33;4.57;;;;;;;;;;759476;182;633640;-68
2021/09/03 10:18:38;;;;;;;6.33;4.50;;;;;;;;;;760910;182;624350;-67
2021/09/03 10:21:03;;;;;;;6.80;4.57;;;;;;;;;;757952;182;622437;-67
2021/09/03 10:23:45;;;;;;;8.20;4.73;;;;;;;;;;758440;182;1364480;-68
2021/09/03 10:26:11;;;;;;;7.03;4.33;;;;;;;;;;753697;185;627466;-68
2021/09/03 10:28:36;;;;;;;8.70;4.97;;;;;;;;;;757555;182;632188;-68
2021/09/03 10:31:04;;;;;;;7.10;4.70;;;;;;;;;;757932;182;641341;-69
2021/09/03 10:33:33;;;;;;;6.67;4.80;;;;;;;;;;759140;182;919525;-69
2021/09/03 10:35:58;;;;;;;7.03;4.50;;;;;;;;;;758292;182;644825;-68
2021/09/03 10:38:25;;;;;;;8.73;4.67;;;;;;;;;;758038;182;633116;-68
2021/09/03 10:40:51;;;;;;;7.43;5.30;;;;;;;;;;759013;181;631916;-68
2021/09/03 10:43:17;;;;;;;7.17;5.37;;;;;;;;;;755474;184;625837;-68
2021/09/03 10:45:43;;;;;;;8.37;4.90;;;;;;;;;;757989;182;626799;-67
2021/09/03 10:48:11;;;;;;;8.03;5.50;;;;;;;;;;760644;182;625454;-68
2021/09/03 10:50:38;;;;;;;6.53;4.60;;;;;;;;;;761254;182;616196;-69
2021/09/03 10:53:19;;;;;;;9.60;4.93;;;;;;;;;;757907;182;631797;-67
2021/09/03 10:55:52;;;;;;;6.83;4.40;;;;;;;;;;759473;182;633982;-68
2021/09/03 10:58:23;;;;;;;6.77;4.40;;;;;;;;;;760001;182;650343;-67
2021/09/03 11:00:49;;;;;;;6.90;4.17;;;;;;;;;;755556;182;918229;-68
2021/09/03 11:03:30;;;;;;;7.07;5.13;;;;;;;;;;758388;183;641426;-68
2021/09/03 11:05:58;;;;;;;7.57;5.10;;;;;;;;;;752636;185;634845;-69
2021/09/03 11:08:41;;;;;;;10.27;5.10;;;;;;;;;;747597;184;618983;-68
2021/09/03 11:11:13;;;;;;;6.43;4.93;;;;;;;;;;750758;182;632012;-67
2021/09/03 11:13:45;;;;;;;8.27;4.50;;;;;;;;;;759953;182;629228;-68
2021/09/03 11:16:11;;;;;;;5.90;4.30;;;;;;;;;;759047;182;624478;-69
2021/09/03 11:18:36;;;;;;;8.10;4.83;;;;;;;;;;758191;182;645360;-70
2021/09/03 11:21:02;;;;;;;7.40;4.63;;;;;;;;;;759010;182;633371;-68
2021/09/03 11:23:28;;;;;;;9.23;4.90;;;;;;;;;;757269;182;633363;-68
2021/09/03 11:25:54;;;;;;;7.63;4.27;;;;;;;;;;755611;182;629668;-67
2021/09/03 11:28:20;;;;;;;9.27;4.50;;;;;;;;;;750396;185;619433;-70
2021/09/03 11:30:46;;;;;;;7.80;5.33;;;;;;;;;;754371;182;881742;-68
2021/09/03 11:33:11;;;;;;;7.00;3.83;;;;;;;;;;754734;182;924607;-68
2021/09/03 11:35:52;;;;;;;6.77;4.67;;;;;;;;;;763192;182;619529;-68
2021/09/03 11:38:17;;;;;;;6.70;4.70;;;;;;;;;;760197;185;619108;-68
2021/09/03 11:40:43;;;;;;;5.50;4.30;;;;;;;;;;759326;182;629059;-70
2021/09/03 11:43:09;;;;;;;9.50;4.67;;;;;;;;;;759779;182;629733;-68
2021/09/03 11:45:35;;;;;;;6.83;4.47;;;;;;;;;;762150;182;626475;-68
2021/09/03 11:48:02;;;;;;;7.30;4.90;;;;;;;;;;757050;182;636666;-69
2021/09/03 11:50:43;;;;;;;6.20;4.70;;;;;;;;;;758381;182;625072;-69
2021/09/03 11:53:10;;;;;;;7.80;4.87;;;;;;;;;;759952;181;618472;-69
2021/09/03 11:55:35;;;;;;;7.37;4.87;;;;;;;;;;761997;182;627483;-68
2021/09/03 11:58:03;;;;;;;7.23;5.10;;;;;;;;;;759440;182;630565;-71
2021/09/03 12:00:29;;;;;;;8.13;4.60;;;;;;;;;;759147;182;620083;-69
2021/09/03 12:02:55;;;;;;;13.50;6.23;;;;;;;;;;758661;182;623712;-69
2021/09/03 12:05:21;;;;;;;6.17;4.93;;;;;;;;;;763993;182;654113;-68
2021/09/03 12:07:52;;;;;;;5.90;4.57;;;;;;;;;;757899;182;1053684;-69
2021/09/03 12:10:21;;;;;;;6.90;4.50;;;;;;;;;;759960;182;647306;-68
2021/09/03 12:12:44;;;;;;;8.57;5.73;;;;;;;;;;762446;182;630655;-69
2021/09/03 12:15:10;;;;;;;9.03;4.33;;;;;;;;;;760582;182;627302;-69
2021/09/03 12:17:39;;;;;;;6.60;5.20;;;;;;;;;;756741;182;633829;-68
2021/09/03 12:20:11;;;;;;;7.80;5.07;;;;;;;;;;758931;182;623421;-68
2021/09/03 12:22:43;;;;;;;7.40;5.13;;;;;;;;;;760220;182;615025;-71
2021/09/03 12:25:09;;;;;;;5.93;5.20;;;;;;;;;;752991;185;628318;-69
2021/09/03 12:27:35;;;;;;;7.60;5.23;;;;;;;;;;758347;182;620635;-69
2021/09/03 12:30:06;;;;;;;9.30;5.23;;;;;;;;;;755591;182;623105;-69
2021/09/03 12:32:33;;;;;;;6.60;4.37;;;;;;;;;;761292;182;627141;-70
2021/09/03 12:34:58;;;;;;;8.60;4.93;;;;;;;;;;761788;182;620547;-69
2021/09/03 12:37:26;;;;;;;9.63;5.40;;;;;;;;;;759247;182;628689;-70
2021/09/03 12:39:50;;;;;;;7.03;4.63;;;;;;;;;;758466;185;647937;-69
2021/09/03 12:42:15;;;;;;;6.90;5.00;;;;;;;;;;759268;182;637106;-71
2021/09/03 12:44:41;;;;;;;11.07;5.20;;;;;;;;;;754081;182;1182192;-71
2021/09/03 12:47:07;;;;;;;5.57;4.50;;;;;;;;;;758874;182;619140;-70
2021/09/03 12:49:35;;;;;;;9.43;5.03;;;;;;;;;;763581;182;625774;-68
2021/09/03 12:52:02;;;;;;;6.90;4.30;;;;;;;;;;759426;182;634803;-69
2021/09/03 12:54:27;;;;;;;5.67;4.13;;;;;;;;;;762059;182;619272;-69
2021/09/03 12:56:53;;;;;;;8.00;4.93;;;;;;;;;;761820;182;646052;-69
2021/09/03 12:59:19;;;;;;;6.73;4.93;;;;;;;;;;758573;182;917319;-67
2021/09/03 13:01:45;;;;;;;12.30;5.10;;;;;;;;;;758339;182;636960;-70
2021/09/03 13:04:12;;;;;;;6.23;4.57;;;;;;;;;;756647;180;919288;-68
2021/09/03 13:06:38;;;;;;;7.83;6.10;;;;;;;;;;765289;181;637666;-69
2021/09/03 13:09:04;;;;;;;7.53;4.93;;;;;;;;;;759703;182;644938;-68
2021/09/03 13:11:30;;;;;;;8.20;4.80;;;;;;;;;;759498;182;636384;-70
2021/09/03 13:13:56;;;;;;;11.33;5.60;;;;;;;;;;762669;182;619033;-69
2021/09/03 13:16:22;;;;;;;6.43;3.90;;;;;;;;;;760001;182;633607;-69
2021/09/03 13:18:47;;;;;;;8.43;4.27;;;;;;;;;;761677;182;629345;-68
2021/09/03 13:21:13;;;;;;;9.63;4.70;;;;;;;;;;759471;182;666976;-69
2021/09/03 13:23:39;;;;;;;9.57;5.10;;;;;;;;;;761404;182;618283;-69
2021/09/03 13:26:05;;;;;;;7.30;4.47;;;;;;;;;;757435;182;917607;-69
2021/09/03 13:28:31;;;;;;;7.50;5.10;;;;;;;;;;754808;184;630460;-69
2021/09/03 13:30:57;;;;;;;6.03;4.33;;;;;;;;;;764835;182;638491;-69
2021/09/03 13:33:22;;;;;;;7.50;5.20;;;;;;;;;;761063;182;629728;-72
2021/09/03 13:35:48;;;;;;;7.13;4.70;;;;;;;;;;758917;182;623756;-70
2021/09/03 13:38:14;;;;;;;6.23;4.80;;;;;;;;;;764880;182;619093;-70
2021/09/03 13:40:40;;;;;;;7.80;4.73;;;;;;;;;;758899;182;632495;-69
2021/09/03 13:43:06;;;;;;;10.00;4.80;;;;;;;;;;756716;182;633750;-69
2021/09/03 13:45:37;;;;;;;8.10;5.60;;;;;;;;;;760004;182;628869;-69
2021/09/03 13:47:57;;;;;;;9.90;5.30;;;;;;;;;;762568;182;620864;-70
2021/09/03 13:50:23;;;;;;;6.30;4.67;;;;;;;;;;757514;182;938728;-70
2021/09/03 13:52:49;;;;;;;9.90;5.30;;;;;;;;;;754652;182;919343;-69
2021/09/03 13:55:15;;;;;;;6.97;4.20;;;;;;;;;;763958;182;616873;-69
2021/09/03 13:57:41;;;;;;;7.20;4.70;;;;;;;;;;759604;182;623149;-69
2021/09/03 14:00:07;;;;;;;6.87;4.33;;;;;;;;;;756444;184;627033;-70
2021/09/03 14:02:33;;;;;;;7.97;5.40;;;;;;;;;;763050;182;638467;-69
2021/09/03 14:04:59;;;;;;;5.40;4.27;;;;;;;;;;758835;182;919290;-69
2021/09/03 14:07:24;;;;;;;10.17;5.40;;;;;;;;;;759426;182;634834;-69
2021/09/03 14:09:50;;;;;;;7.40;4.40;;;;;;;;;;760554;182;613520;-69
2021/09/03 14:12:16;;;;;;;5.43;4.23;;;;;;;;;;755994;182;638937;-69
2021/09/03 14:14:42;;;;;;;6.77;4.43;;;;;;;;;;758453;181;629581;-69